sensor_id;sensor_type;location;lat;lon;timestamp;pressure;altitude;pressure_sealevel;temperature;humidity
31162;BME280;17796;49.296;-117.656;2022-07-24T00:13:35;96100;;;26.67934;33.03308
31162;BME280;17796;49.296;-117.656;2022-07-24T00:28:40;96100;;;29.26638;29.92326
31162;BME280;17796;49.296;-117.656;2022-07-24T00:44:01;96100;;;30.64793;27.53364
31162;BME280;17796;49.296;-117.656;2022-07-24T00:59:07;96200;;;29.81214;28.56293
31162;BME280;17796;49.296;-117.656;2022-07-24T01:14:11;96100;;;30.79056;27.31501
31162;BME280;17796;49.296;-117.656;2022-07-24T01:29:15;96100;;;29.30291;27.98004
31162;BME280;17796;49.296;-117.656;2022-07-24T01:44:20;96100;;;28.99605;29.17323
31162;BME280;17796;49.296;-117.656;2022-07-24T01:59:23;96100;;;29.70476;31.44563
31162;BME280;17796;49.296;-117.656;2022-07-24T02:14:27;96100;;;29.56626;31.52588
31162;BME280;17796;49.296;-117.656;2022-07-24T02:29:31;96100;;;27.97508;34.50547
31162;BME280;17796;49.296;-117.656;2022-07-24T02:44:34;96100;;;27.21904;35.21794
31162;BME280;17796;49.296;-117.656;2022-07-24T02:59:38;96100;;;27.40742;34.10846
31162;BME280;17796;49.296;-117.656;2022-07-24T03:14:42;96100;;;26.91758;33.70503
31162;BME280;17796;49.296;-117.656;2022-07-24T03:29:46;96100;;;26.39154;34.65424
31162;BME280;17796;49.296;-117.656;2022-07-24T03:44:50;96100;;;25.81309;35.0268
31162;BME280;17796;49.296;-117.656;2022-07-24T03:59:53;96200;;;24.75912;36.59216
31162;BME280;17796;49.296;-117.656;2022-07-24T04:14:57;96200;;;24.48022;38.01526
31162;BME280;17796;49.296;-117.656;2022-07-24T04:30:01;96200;;;23.3783;38.64665
31162;BME280;17796;49.296;-117.656;2022-07-24T04:45:06;96200;;;23.22901;40.64512
31162;BME280;17796;49.296;-117.656;2022-07-24T05:00:11;96200;;;21.9721;41.40066
31162;BME280;17796;49.296;-117.656;2022-07-24T05:15:16;96200;;;21.24311;45.29187
31162;BME280;17796;49.296;-117.656;2022-07-24T05:30:19;96300;;;21.57695;42.10761
31162;BME280;17796;49.296;-117.656;2022-07-24T05:45:23;96300;;;21.56901;42.17136
31162;BME280;17796;49.296;-117.656;2022-07-24T06:00:27;96300;;;20.47443;44.43425
31162;BME280;17796;49.296;-117.656;2022-07-24T06:15:31;96300;;;17.48299;57.40899
31162;BME280;17796;49.296;-117.656;2022-07-24T06:30:35;96300;;;18.79574;51.87393
31162;BME280;17796;49.296;-117.656;2022-07-24T06:45:39;96300;;;19.32841;47.45527
31162;BME280;17796;49.296;-117.656;2022-07-24T07:00:43;96300;;;18.99172;49.48686
31162;BME280;17796;49.296;-117.656;2022-07-24T07:15:47;96400;;;18.27737;50.24149
31162;BME280;17796;49.296;-117.656;2022-07-24T07:30:50;96400;;;18.03026;50.36212
31162;BME280;17796;49.296;-117.656;2022-07-24T07:45:54;96400;;;18.24116;49.89042
31162;BME280;17796;49.296;-117.656;2022-07-24T08:00:58;96400;;;17.968;49.7926
31162;BME280;17796;49.296;-117.656;2022-07-24T08:16:01;96400;;;17.72661;52.48771
31162;BME280;17796;49.296;-117.656;2022-07-24T08:31:05;96400;;;15.89901;57.68837
31162;BME280;17796;49.296;-117.656;2022-07-24T08:46:09;96400;;;17.07961;51.42782
31162;BME280;17796;49.296;-117.656;2022-07-24T09:01:13;96400;;;15.64523;58.20769
31162;BME280;17796;49.296;-117.656;2022-07-24T09:16:18;96400;;;16.79946;50.35058
31162;BME280;17796;49.296;-117.656;2022-07-24T09:31:23;96400;;;14.87342;63.57693
31162;BME280;17796;49.296;-117.656;2022-07-24T09:46:27;96400;;;15.64333;55.30219
31162;BME280;17796;49.296;-117.656;2022-07-24T10:01:31;96400;;;15.49309;57.14803
31162;BME280;17796;49.296;-117.656;2022-07-24T10:16:37;96400;;;16.22521;52.4395
31162;BME280;17796;49.296;-117.656;2022-07-24T10:31:44;96500;;;15.27267;56.36517
31162;BME280;17796;49.296;-117.656;2022-07-24T10:46:58;96500;;;15.00555;57.82825
31162;BME280;17796;49.296;-117.656;2022-07-24T11:02:36;96500;;;15.32761;55.09737
31162;BME280;17796;49.296;-117.656;2022-07-24T11:18:08;96500;;;15.2949;54.60071
31162;BME280;17796;49.296;-117.656;2022-07-24T11:33:19;96500;;;14.97284;55.08492
31162;BME280;17796;49.296;-117.656;2022-07-24T11:48:24;96500;;;14.99443;55.59786
31162;BME280;17796;49.296;-117.656;2022-07-24T12:03:28;96500;;;14.45385;56.47043
31162;BME280;17796;49.296;-117.656;2022-07-24T12:18:32;96500;;;14.79275;54.13981
31162;BME280;17796;49.296;-117.656;2022-07-24T12:33:35;96500;;;13.7135;59.33345
31162;BME280;17796;49.296;-117.656;2022-07-24T12:48:39;96600;;;14.03111;58.05445
31162;BME280;17796;49.296;-117.656;2022-07-24T13:03:58;96600;;;13.01222;68.74951
31162;BME280;17796;49.296;-117.656;2022-07-24T13:19:03;96600;;;14.13846;60.14685
31162;BME280;17796;49.296;-117.656;2022-07-24T13:34:08;96600;;;14.19913;65.68859
31162;BME280;17796;49.296;-117.656;2022-07-24T13:49:12;96600;;;15.51596;59.62517
31162;BME280;17796;49.296;-117.656;2022-07-24T14:04:15;96600;;;15.79864;60.51468
31162;BME280;17796;49.296;-117.656;2022-07-24T14:19:19;96600;;;16.98972;56.57253
31162;BME280;17796;49.296;-117.656;2022-07-24T14:34:22;96600;;;17.79553;53.07424
31162;BME280;17796;49.296;-117.656;2022-07-24T14:49:26;96600;;;17.69548;53.71869
31162;BME280;17796;49.296;-117.656;2022-07-24T15:04:30;96600;;;19.84107;47.16351
31162;BME280;17796;49.296;-117.656;2022-07-24T15:19:33;96600;;;19.04889;47.26658
31162;BME280;17796;49.296;-117.656;2022-07-24T15:34:37;96600;;;19.39511;48.32616
31162;BME280;17796;49.296;-117.656;2022-07-24T15:49:40;96600;;;22.62104;41.18631
31162;BME280;17796;49.296;-117.656;2022-07-24T16:04:44;96500;;;21.11479;42.74907
31162;BME280;17796;49.296;-117.656;2022-07-24T16:19:48;96500;;;21.41432;42.18246
31162;BME280;17796;49.296;-117.656;2022-07-24T16:34:51;96500;;;21.91587;39.49631
31162;BME280;17796;49.296;-117.656;2022-07-24T16:49:55;96500;;;25.48813;34.7208
31162;BME280;17796;49.296;-117.656;2022-07-24T17:04:59;96500;;;25.7124;33.6968
31162;BME280;17796;49.296;-117.656;2022-07-24T17:20:02;96500;;;26.44173;31.03293
31162;BME280;17796;49.296;-117.656;2022-07-24T17:35:07;96400;;;27.71745;27.04326
31162;BME280;17796;49.296;-117.656;2022-07-24T17:50:11;96400;;;28.72;26.05738
31162;BME280;17796;49.296;-117.656;2022-07-24T18:05:15;96400;;;29.30006;24.41854
31162;BME280;17796;49.296;-117.656;2022-07-24T18:20:21;96400;;;31.3665;21.85214
31162;BME280;17796;49.296;-117.656;2022-07-24T18:35:25;96400;;;31.7385;23.15928
31162;BME280;17796;49.296;-117.656;2022-07-24T18:50:29;96400;;;29.66601;23.12221
31162;BME280;17796;49.296;-117.656;2022-07-24T19:05:32;96300;;;29.05386;24.44001
31162;BME280;17796;49.296;-117.656;2022-07-24T19:20:36;96300;;;31.25278;22.31612
31162;BME280;17796;49.296;-117.656;2022-07-24T19:35:40;96300;;;30.64793;22.82484
31162;BME280;17796;49.296;-117.656;2022-07-24T19:50:43;96300;;;31.86557;21.17893
31162;BME280;17796;49.296;-117.656;2022-07-24T20:05:47;96300;;;33.77133;17.88658
31162;BME280;17796;49.296;-117.656;2022-07-24T20:20:51;96300;;;32.58607;14.88058
31162;BME280;17796;49.296;-117.656;2022-07-24T20:35:54;96200;;;34.40956;15.74229
31162;BME280;17796;49.296;-117.656;2022-07-24T20:50:58;96200;;;32.95426;14.61829
31162;BME280;17796;49.296;-117.656;2022-07-24T21:06:02;96200;;;36.40878;13.11564
31162;BME280;17796;49.296;-117.656;2022-07-24T21:21:06;96200;;;37.21413;11.89403
31162;BME280;17796;49.296;-117.656;2022-07-24T21:36:09;96200;;;34.40988;11.68856
31162;BME280;17796;49.296;-117.656;2022-07-24T21:51:13;96200;;;35.57516;11.79531
31162;BME280;17796;49.296;-117.656;2022-07-24T22:06:17;96200;;;35.13452;14.18138
31162;BME280;17796;49.296;-117.656;2022-07-24T22:21:21;96200;;;36.08759;9.44605
31162;BME280;17796;49.296;-117.656;2022-07-24T22:36:26;96200;;;37.06513;8.97981
31162;BME280;17796;49.296;-117.656;2022-07-24T22:51:34;96100;;;36.39321;13.70263
31162;BME280;17796;49.296;-117.656;2022-07-24T23:06:38;96100;;;36.13683;13.55622
31162;BME280;17796;49.296;-117.656;2022-07-24T23:21:42;96100;;;36.64292;9.42304
31162;BME280;17796;49.296;-117.656;2022-07-24T23:36:46;96100;;;34.88514;10.74009
31162;BME280;17796;49.296;-117.656;2022-07-24T23:51:50;96100;;;37.58171;10.71118
